sensor_id;sensor_type;location;lat;lon;timestamp;pressure;altitude;pressure_sealevel;temperature;humidity
58385;BME280;44185;47.844;8.966;2023-06-10T00:00:36;95741.22;;;16.28;69.58
58385;BME280;44185;47.844;8.966;2023-06-10T00:03:01;95729.72;;;16.27;69.35
58385;BME280;44185;47.844;8.966;2023-06-10T00:05:27;95733.97;;;16.37;68.89
58385;BME280;44185;47.844;8.966;2023-06-10T00:07:52;95736.00;;;16.34;69.06
58385;BME280;44185;47.844;8.966;2023-06-10T00:10:19;95737.72;;;16.27;69.17
58385;BME280;44185;47.844;8.966;2023-06-10T00:12:44;95731.94;;;16.23;69.42
58385;BME280;44185;47.844;8.966;2023-06-10T00:15:10;95736.63;;;16.21;69.45
58385;BME280;44185;47.844;8.966;2023-06-10T00:17:37;95736.44;;;16.23;69.45
58385;BME280;44185;47.844;8.966;2023-06-10T00:20:03;95739.75;;;16.25;69.32
58385;BME280;44185;47.844;8.966;2023-06-10T00:22:33;95740.03;;;16.30;69.22
58385;BME280;44185;47.844;8.966;2023-06-10T00:24:58;95730.69;;;16.34;68.79
58385;BME280;44185;47.844;8.966;2023-06-10T00:27:25;95735.81;;;16.36;69.09
58385;BME280;44185;47.844;8.966;2023-06-10T00:29:53;95733.16;;;16.36;68.99
58385;BME280;44185;47.844;8.966;2023-06-10T00:32:19;95736.09;;;16.41;68.22
58385;BME280;44185;47.844;8.966;2023-06-10T00:34:47;95740.59;;;16.41;68.58
58385;BME280;44185;47.844;8.966;2023-06-10T00:37:12;95725.56;;;16.25;69.25
58385;BME280;44185;47.844;8.966;2023-06-10T00:39:38;95724.84;;;16.16;69.96
58385;BME280;44185;47.844;8.966;2023-06-10T00:42:04;95724.72;;;16.09;70.23
58385;BME280;44185;47.844;8.966;2023-06-10T00:44:30;95723.22;;;16.06;70.47
58385;BME280;44185;47.844;8.966;2023-06-10T00:46:56;95722.03;;;16.09;70.51
58385;BME280;44185;47.844;8.966;2023-06-10T00:49:21;95723.91;;;16.08;70.51
58385;BME280;44185;47.844;8.966;2023-06-10T00:51:47;95723.06;;;16.08;70.46
58385;BME280;44185;47.844;8.966;2023-06-10T00:54:12;95722.75;;;16.03;70.96
58385;BME280;44185;47.844;8.966;2023-06-10T00:56:38;95717.94;;;15.98;70.88
58385;BME280;44185;47.844;8.966;2023-06-10T00:59:03;95713.50;;;15.90;71.52
58385;BME280;44185;47.844;8.966;2023-06-10T01:01:30;95711.50;;;15.92;71.51
58385;BME280;44185;47.844;8.966;2023-06-10T01:03:56;95709.63;;;15.93;71.52
58385;BME280;44185;47.844;8.966;2023-06-10T01:06:31;95712.97;;;15.95;71.57
58385;BME280;44185;47.844;8.966;2023-06-10T01:09:06;95719.50;;;15.92;71.78
58385;BME280;44185;47.844;8.966;2023-06-10T01:11:46;95718.81;;;15.90;71.94
58385;BME280;44185;47.844;8.966;2023-06-10T01:14:13;95712.78;;;15.96;71.83
58385;BME280;44185;47.844;8.966;2023-06-10T01:16:40;95713.31;;;15.92;72.11
58385;BME280;44185;47.844;8.966;2023-06-10T01:19:05;95715.50;;;15.88;72.31
58385;BME280;44185;47.844;8.966;2023-06-10T01:21:32;95710.06;;;15.81;72.71
58385;BME280;44185;47.844;8.966;2023-06-10T01:23:57;95712.44;;;15.76;73.30
58385;BME280;44185;47.844;8.966;2023-06-10T01:26:26;95713.16;;;15.70;73.79
58385;BME280;44185;47.844;8.966;2023-06-10T01:28:58;95714.38;;;15.59;74.67
58385;BME280;44185;47.844;8.966;2023-06-10T01:31:33;95714.69;;;15.64;74.43
58385;BME280;44185;47.844;8.966;2023-06-10T01:34:03;95713.19;;;15.61;74.83
58385;BME280;44185;47.844;8.966;2023-06-10T01:36:33;95710.72;;;15.60;74.94
58385;BME280;44185;47.844;8.966;2023-06-10T01:39:00;95713.75;;;15.56;75.37
58385;BME280;44185;47.844;8.966;2023-06-10T01:41:30;95718.22;;;15.56;75.26
58385;BME280;44185;47.844;8.966;2023-06-10T01:43:56;95725.19;;;15.65;75.07
58385;BME280;44185;47.844;8.966;2023-06-10T01:46:22;95723.53;;;15.64;75.33
58385;BME280;44185;47.844;8.966;2023-06-10T01:48:47;95726.06;;;15.57;75.69
58385;BME280;44185;47.844;8.966;2023-06-10T01:51:13;95727.84;;;15.65;75.51
58385;BME280;44185;47.844;8.966;2023-06-10T01:53:40;95719.56;;;15.60;75.86
58385;BME280;44185;47.844;8.966;2023-06-10T01:56:05;95725.88;;;15.59;76.03
58385;BME280;44185;47.844;8.966;2023-06-10T01:58:30;95733.59;;;15.54;76.52
58385;BME280;44185;47.844;8.966;2023-06-10T02:00:59;95724.97;;;15.43;77.08
58385;BME280;44185;47.844;8.966;2023-06-10T02:03:24;95725.81;;;15.44;77.09
58385;BME280;44185;47.844;8.966;2023-06-10T02:05:50;95724.34;;;15.41;77.54
58385;BME280;44185;47.844;8.966;2023-06-10T02:08:15;95735.16;;;15.40;77.79
58385;BME280;44185;47.844;8.966;2023-06-10T02:10:42;95734.22;;;15.32;78.18
58385;BME280;44185;47.844;8.966;2023-06-10T02:13:07;95728.56;;;15.27;78.26
58385;BME280;44185;47.844;8.966;2023-06-10T02:15:33;95735.91;;;15.25;79.27
58385;BME280;44185;47.844;8.966;2023-06-10T02:18:00;95733.78;;;15.20;79.34
58385;BME280;44185;47.844;8.966;2023-06-10T02:20:26;95734.28;;;15.16;79.95
58385;BME280;44185;47.844;8.966;2023-06-10T02:22:51;95734.66;;;15.12;80.55
58385;BME280;44185;47.844;8.966;2023-06-10T02:25:17;95744.59;;;15.19;80.51
58385;BME280;44185;47.844;8.966;2023-06-10T02:27:43;95740.78;;;15.13;80.88
58385;BME280;44185;47.844;8.966;2023-06-10T02:30:10;95747.28;;;15.10;80.84
58385;BME280;44185;47.844;8.966;2023-06-10T02:32:35;95751.22;;;14.91;81.97
58385;BME280;44185;47.844;8.966;2023-06-10T02:35:01;95745.78;;;14.67;83.60
58385;BME280;44185;47.844;8.966;2023-06-10T02:37:26;95746.09;;;14.64;83.96
58385;BME280;44185;47.844;8.966;2023-06-10T02:39:51;95756.88;;;14.71;83.03
58385;BME280;44185;47.844;8.966;2023-06-10T02:42:17;95752.72;;;14.77;83.28
58385;BME280;44185;47.844;8.966;2023-06-10T02:44:44;95749.75;;;14.72;82.93
58385;BME280;44185;47.844;8.966;2023-06-10T02:47:09;95753.38;;;14.79;82.74
58385;BME280;44185;47.844;8.966;2023-06-10T02:49:34;95749.09;;;14.70;83.02
58385;BME280;44185;47.844;8.966;2023-06-10T02:52:00;95752.44;;;14.46;84.93
58385;BME280;44185;47.844;8.966;2023-06-10T02:54:26;95759.13;;;14.42;85.81
58385;BME280;44185;47.844;8.966;2023-06-10T02:56:52;95760.78;;;14.27;86.26
58385;BME280;44185;47.844;8.966;2023-06-10T02:59:17;95759.44;;;14.31;86.66
58385;BME280;44185;47.844;8.966;2023-06-10T03:01:45;95751.97;;;14.18;86.95
58385;BME280;44185;47.844;8.966;2023-06-10T03:04:10;95756.81;;;14.14;87.98
58385;BME280;44185;47.844;8.966;2023-06-10T03:06:36;95760.13;;;13.99;89.39
58385;BME280;44185;47.844;8.966;2023-06-10T03:09:02;95758.97;;;14.02;87.95
58385;BME280;44185;47.844;8.966;2023-06-10T03:11:27;95763.94;;;13.88;89.21
58385;BME280;44185;47.844;8.966;2023-06-10T03:13:53;95764.13;;;14.04;88.79
58385;BME280;44185;47.844;8.966;2023-06-10T03:16:19;95764.13;;;14.04;87.95
58385;BME280;44185;47.844;8.966;2023-06-10T03:18:46;95768.78;;;13.85;89.97
58385;BME280;44185;47.844;8.966;2023-06-10T03:21:12;95775.09;;;13.84;88.49
58385;BME280;44185;47.844;8.966;2023-06-10T03:23:37;95767.75;;;13.86;89.96
58385;BME280;44185;47.844;8.966;2023-06-10T03:26:03;95781.88;;;13.70;91.53
58385;BME280;44185;47.844;8.966;2023-06-10T03:28:28;95778.88;;;13.73;92.22
58385;BME280;44185;47.844;8.966;2023-06-10T03:30:53;95775.72;;;13.77;91.86
58385;BME280;44185;47.844;8.966;2023-06-10T03:33:19;95784.19;;;13.64;93.53
58385;BME280;44185;47.844;8.966;2023-06-10T03:35:46;95782.22;;;13.75;92.42
58385;BME280;44185;47.844;8.966;2023-06-10T03:38:11;95784.88;;;13.66;93.13
58385;BME280;44185;47.844;8.966;2023-06-10T03:40:37;95786.53;;;13.76;91.91
58385;BME280;44185;47.844;8.966;2023-06-10T03:43:02;95787.38;;;13.76;92.08
58385;BME280;44185;47.844;8.966;2023-06-10T03:45:28;95785.72;;;13.75;92.55
58385;BME280;44185;47.844;8.966;2023-06-10T03:47:54;95788.69;;;13.64;92.40
58385;BME280;44185;47.844;8.966;2023-06-10T03:50:19;95794.00;;;13.72;93.49
58385;BME280;44185;47.844;8.966;2023-06-10T03:52:46;95791.69;;;13.77;92.46
58385;BME280;44185;47.844;8.966;2023-06-10T03:55:11;95790.56;;;13.80;93.49
58385;BME280;44185;47.844;8.966;2023-06-10T03:57:37;95792.06;;;13.83;92.62
58385;BME280;44185;47.844;8.966;2023-06-10T04:00:03;95798.03;;;13.85;92.43
58385;BME280;44185;47.844;8.966;2023-06-10T04:02:29;95798.19;;;13.92;92.83
58385;BME280;44185;47.844;8.966;2023-06-10T04:04:54;95795.38;;;13.85;93.21
58385;BME280;44185;47.844;8.966;2023-06-10T04:07:19;95795.06;;;13.88;92.61
58385;BME280;44185;47.844;8.966;2023-06-10T04:09:46;95799.22;;;13.90;92.88
58385;BME280;44185;47.844;8.966;2023-06-10T04:12:12;95800.53;;;13.95;93.68
58385;BME280;44185;47.844;8.966;2023-06-10T04:14:37;95790.22;;;13.92;93.14
58385;BME280;44185;47.844;8.966;2023-06-10T04:17:04;95792.22;;;13.98;93.36
58385;BME280;44185;47.844;8.966;2023-06-10T04:19:29;95799.72;;;14.03;94.21
58385;BME280;44185;47.844;8.966;2023-06-10T04:21:55;95809.16;;;13.88;94.05
58385;BME280;44185;47.844;8.966;2023-06-10T04:24:20;95806.84;;;14.02;93.21
58385;BME280;44185;47.844;8.966;2023-06-10T04:26:47;95811.66;;;14.07;93.31
58385;BME280;44185;47.844;8.966;2023-06-10T04:29:12;95810.19;;;14.21;93.15
58385;BME280;44185;47.844;8.966;2023-06-10T04:31:38;95802.22;;;14.38;92.48
58385;BME280;44185;47.844;8.966;2023-06-10T04:34:03;95808.34;;;14.63;91.21
58385;BME280;44185;47.844;8.966;2023-06-10T04:36:29;95813.78;;;14.78;89.95
58385;BME280;44185;47.844;8.966;2023-06-10T04:38:54;95814.31;;;14.99;88.80
58385;BME280;44185;47.844;8.966;2023-06-10T04:41:21;95806.28;;;15.07;88.48
58385;BME280;44185;47.844;8.966;2023-06-10T04:43:48;95817.69;;;15.33;88.07
58385;BME280;44185;47.844;8.966;2023-06-10T04:46:13;95814.28;;;15.48;86.95
58385;BME280;44185;47.844;8.966;2023-06-10T04:48:39;95811.88;;;15.61;85.39
58385;BME280;44185;47.844;8.966;2023-06-10T04:51:04;95814.16;;;15.73;85.15
58385;BME280;44185;47.844;8.966;2023-06-10T04:53:32;95821.78;;;15.84;84.04
58385;BME280;44185;47.844;8.966;2023-06-10T04:55:58;95819.56;;;15.88;84.13
58385;BME280;44185;47.844;8.966;2023-06-10T04:58:23;95816.19;;;15.94;82.90
58385;BME280;44185;47.844;8.966;2023-06-10T05:00:50;95819.69;;;15.95;82.36
58385;BME280;44185;47.844;8.966;2023-06-10T05:03:16;95815.41;;;15.85;83.45
58385;BME280;44185;47.844;8.966;2023-06-10T05:05:41;95818.38;;;15.90;83.50
58385;BME280;44185;47.844;8.966;2023-06-10T05:08:07;95813.69;;;15.93;83.17
58385;BME280;44185;47.844;8.966;2023-06-10T05:10:32;95820.78;;;16.09;83.20
58385;BME280;44185;47.844;8.966;2023-06-10T05:12:58;95826.91;;;16.18;82.78
58385;BME280;44185;47.844;8.966;2023-06-10T05:15:23;95822.22;;;16.20;81.95
58385;BME280;44185;47.844;8.966;2023-06-10T05:17:50;95825.19;;;16.25;81.74
58385;BME280;44185;47.844;8.966;2023-06-10T05:20:16;95831.47;;;16.32;80.99
58385;BME280;44185;47.844;8.966;2023-06-10T05:22:41;95830.09;;;16.37;81.19
58385;BME280;44185;47.844;8.966;2023-06-10T05:25:07;95835.38;;;16.45;81.49
58385;BME280;44185;47.844;8.966;2023-06-10T05:27:33;95835.97;;;16.55;80.96
58385;BME280;44185;47.844;8.966;2023-06-10T05:29:58;95841.63;;;16.76;80.25
58385;BME280;44185;47.844;8.966;2023-06-10T05:32:23;95839.34;;;16.88;78.49
58385;BME280;44185;47.844;8.966;2023-06-10T05:34:50;95840.00;;;16.90;77.97
58385;BME280;44185;47.844;8.966;2023-06-10T05:37:16;95840.31;;;17.26;76.23
58385;BME280;44185;47.844;8.966;2023-06-10T05:39:41;95848.78;;;17.44;75.07
58385;BME280;44185;47.844;8.966;2023-06-10T05:42:07;95844.50;;;17.65;73.71
58385;BME280;44185;47.844;8.966;2023-06-10T05:44:33;95847.25;;;17.87;73.37
58385;BME280;44185;47.844;8.966;2023-06-10T05:46:58;95853.25;;;18.11;72.50
58385;BME280;44185;47.844;8.966;2023-06-10T05:49:24;95855.78;;;18.35;71.60
58385;BME280;44185;47.844;8.966;2023-06-10T05:51:51;95850.81;;;18.54;70.16
58385;BME280;44185;47.844;8.966;2023-06-10T05:54:16;95850.84;;;18.83;70.08
58385;BME280;44185;47.844;8.966;2023-06-10T05:56:42;95858.38;;;19.01;68.62
58385;BME280;44185;47.844;8.966;2023-06-10T05:59:07;95859.59;;;18.98;68.36
58385;BME280;44185;47.844;8.966;2023-06-10T06:01:32;95857.41;;;19.09;67.71
58385;BME280;44185;47.844;8.966;2023-06-10T06:03:58;95858.38;;;18.50;69.61
58385;BME280;44185;47.844;8.966;2023-06-10T06:06:23;95863.22;;;18.84;69.66
58385;BME280;44185;47.844;8.966;2023-06-10T06:08:50;95865.16;;;18.97;69.85
58385;BME280;44185;47.844;8.966;2023-06-10T06:11:16;95853.41;;;18.69;70.46
58385;BME280;44185;47.844;8.966;2023-06-10T06:13:41;95866.06;;;18.82;70.00
58385;BME280;44185;47.844;8.966;2023-06-10T06:16:07;95861.75;;;19.10;70.11
58385;BME280;44185;47.844;8.966;2023-06-10T06:18:32;95865.56;;;19.22;67.91
58385;BME280;44185;47.844;8.966;2023-06-10T06:20:58;95861.72;;;19.32;68.70
58385;BME280;44185;47.844;8.966;2023-06-10T06:23:23;95860.19;;;19.22;68.81
58385;BME280;44185;47.844;8.966;2023-06-10T06:25:50;95869.44;;;19.49;67.06
58385;BME280;44185;47.844;8.966;2023-06-10T06:28:16;95863.06;;;19.56;66.53
58385;BME280;44185;47.844;8.966;2023-06-10T06:30:41;95862.34;;;19.76;66.85
58385;BME280;44185;47.844;8.966;2023-06-10T06:33:07;95859.66;;;19.76;66.24
58385;BME280;44185;47.844;8.966;2023-06-10T06:35:33;95864.16;;;20.18;65.52
58385;BME280;44185;47.844;8.966;2023-06-10T06:37:58;95866.88;;;20.52;64.83
58385;BME280;44185;47.844;8.966;2023-06-10T06:40:24;95863.19;;;20.60;62.86
58385;BME280;44185;47.844;8.966;2023-06-10T06:42:50;95859.22;;;20.29;65.41
58385;BME280;44185;47.844;8.966;2023-06-10T06:45:16;95860.47;;;20.47;63.91
58385;BME280;44185;47.844;8.966;2023-06-10T06:47:41;95862.75;;;20.50;63.26
58385;BME280;44185;47.844;8.966;2023-06-10T06:50:08;95864.63;;;20.97;62.76
58385;BME280;44185;47.844;8.966;2023-06-10T06:52:36;95871.47;;;21.06;61.86
58385;BME280;44185;47.844;8.966;2023-06-10T06:55:01;95862.97;;;20.89;62.55
58385;BME280;44185;47.844;8.966;2023-06-10T06:57:26;95863.78;;;20.62;64.17
58385;BME280;44185;47.844;8.966;2023-06-10T06:59:53;95860.50;;;21.15;63.02
58385;BME280;44185;47.844;8.966;2023-06-10T07:02:19;95860.91;;;20.91;63.16
58385;BME280;44185;47.844;8.966;2023-06-10T07:04:44;95849.53;;;20.96;62.82
58385;BME280;44185;47.844;8.966;2023-06-10T07:07:10;95857.59;;;20.82;62.44
58385;BME280;44185;47.844;8.966;2023-06-10T07:09:35;95861.44;;;21.54;62.60
58385;BME280;44185;47.844;8.966;2023-06-10T07:12:01;95849.81;;;21.67;59.83
58385;BME280;44185;47.844;8.966;2023-06-10T07:14:26;95858.44;;;21.83;60.22
58385;BME280;44185;47.844;8.966;2023-06-10T07:16:53;95857.66;;;22.22;59.43
58385;BME280;44185;47.844;8.966;2023-06-10T07:19:18;95858.16;;;22.44;57.27
58385;BME280;44185;47.844;8.966;2023-06-10T07:21:44;95857.22;;;22.58;58.42
58385;BME280;44185;47.844;8.966;2023-06-10T07:24:09;95861.22;;;22.81;56.25
58385;BME280;44185;47.844;8.966;2023-06-10T07:26:34;95856.47;;;22.43;56.23
58385;BME280;44185;47.844;8.966;2023-06-10T07:29:00;95859.91;;;22.58;56.61
58385;BME280;44185;47.844;8.966;2023-06-10T07:31:25;95857.66;;;22.87;56.55
58385;BME280;44185;47.844;8.966;2023-06-10T07:33:52;95851.69;;;22.78;56.79
58385;BME280;44185;47.844;8.966;2023-06-10T07:36:18;95849.66;;;22.99;55.84
58385;BME280;44185;47.844;8.966;2023-06-10T07:38:43;95861.16;;;23.13;56.36
58385;BME280;44185;47.844;8.966;2023-06-10T07:41:08;95853.19;;;23.63;54.54
58385;BME280;44185;47.844;8.966;2023-06-10T07:43:34;95853.25;;;23.37;54.02
58385;BME280;44185;47.844;8.966;2023-06-10T07:45:59;95852.19;;;23.38;53.29
58385;BME280;44185;47.844;8.966;2023-06-10T07:48:25;95854.28;;;22.92;54.78
58385;BME280;44185;47.844;8.966;2023-06-10T07:50:52;95853.44;;;23.36;55.12
58385;BME280;44185;47.844;8.966;2023-06-10T07:53:18;95851.63;;;23.10;56.38
58385;BME280;44185;47.844;8.966;2023-06-10T07:55:43;95849.25;;;23.21;55.56
58385;BME280;44185;47.844;8.966;2023-06-10T07:58:08;95857.00;;;23.55;54.92
58385;BME280;44185;47.844;8.966;2023-06-10T08:00:34;95858.44;;;23.76;52.89
58385;BME280;44185;47.844;8.966;2023-06-10T08:02:59;95855.75;;;24.07;52.89
58385;BME280;44185;47.844;8.966;2023-06-10T08:05:25;95855.56;;;23.90;53.71
58385;BME280;44185;47.844;8.966;2023-06-10T08:07:52;95857.69;;;24.19;53.29
58385;BME280;44185;47.844;8.966;2023-06-10T08:10:17;95859.09;;;24.21;53.27
58385;BME280;44185;47.844;8.966;2023-06-10T08:12:43;95860.66;;;23.42;54.25
58385;BME280;44185;47.844;8.966;2023-06-10T08:15:09;95857.50;;;23.26;54.71
58385;BME280;44185;47.844;8.966;2023-06-10T08:17:35;95863.50;;;23.28;55.18
58385;BME280;44185;47.844;8.966;2023-06-10T08:20:00;95855.94;;;23.94;53.50
58385;BME280;44185;47.844;8.966;2023-06-10T08:22:25;95851.00;;;23.91;53.52
58385;BME280;44185;47.844;8.966;2023-06-10T08:24:52;95860.16;;;23.52;53.43
58385;BME280;44185;47.844;8.966;2023-06-10T08:27:18;95849.44;;;23.83;52.70
58385;BME280;44185;47.844;8.966;2023-06-10T08:29:43;95858.88;;;23.54;54.02
58385;BME280;44185;47.844;8.966;2023-06-10T08:32:09;95851.47;;;23.69;53.45
58385;BME280;44185;47.844;8.966;2023-06-10T08:34:34;95850.75;;;23.92;53.44
58385;BME280;44185;47.844;8.966;2023-06-10T08:37:00;95860.53;;;23.93;52.76
58385;BME280;44185;47.844;8.966;2023-06-10T08:39:25;95856.00;;;23.49;54.72
58385;BME280;44185;47.844;8.966;2023-06-10T08:42:00;95862.69;;;23.47;55.09
58385;BME280;44185;47.844;8.966;2023-06-10T08:44:32;95860.44;;;23.43;56.06
58385;BME280;44185;47.844;8.966;2023-06-10T08:46:59;95859.72;;;24.05;54.08
58385;BME280;44185;47.844;8.966;2023-06-10T08:49:26;95858.78;;;23.99;53.60
58385;BME280;44185;47.844;8.966;2023-06-10T08:51:56;95856.63;;;23.70;53.37
58385;BME280;44185;47.844;8.966;2023-06-10T08:54:27;95861.13;;;23.76;54.83
58385;BME280;44185;47.844;8.966;2023-06-10T08:56:55;95858.00;;;23.61;53.38
58385;BME280;44185;47.844;8.966;2023-06-10T08:59:23;95855.34;;;23.92;54.00
58385;BME280;44185;47.844;8.966;2023-06-10T09:01:50;95860.91;;;23.40;53.33
58385;BME280;44185;47.844;8.966;2023-06-10T09:04:16;95858.19;;;23.40;54.00
58385;BME280;44185;47.844;8.966;2023-06-10T09:06:41;95856.03;;;23.87;52.58
58385;BME280;44185;47.844;8.966;2023-06-10T09:09:07;95855.84;;;24.00;52.67
58385;BME280;44185;47.844;8.966;2023-06-10T09:11:33;95867.66;;;23.69;52.84
58385;BME280;44185;47.844;8.966;2023-06-10T09:14:00;95855.72;;;24.26;52.43
58385;BME280;44185;47.844;8.966;2023-06-10T09:16:25;95854.91;;;24.57;51.67
58385;BME280;44185;47.844;8.966;2023-06-10T09:18:51;95857.47;;;24.51;50.86
58385;BME280;44185;47.844;8.966;2023-06-10T09:21:17;95852.38;;;24.12;51.74
58385;BME280;44185;47.844;8.966;2023-06-10T09:23:45;95858.00;;;23.80;52.29
58385;BME280;44185;47.844;8.966;2023-06-10T09:26:11;95853.81;;;24.46;51.77
58385;BME280;44185;47.844;8.966;2023-06-10T09:28:36;95851.94;;;25.13;50.53
58385;BME280;44185;47.844;8.966;2023-06-10T09:31:04;95847.81;;;25.10;49.46
58385;BME280;44185;47.844;8.966;2023-06-10T09:33:30;95858.94;;;24.78;49.74
58385;BME280;44185;47.844;8.966;2023-06-10T09:35:56;95849.41;;;24.87;49.99
58385;BME280;44185;47.844;8.966;2023-06-10T09:38:22;95851.78;;;24.84;49.52
58385;BME280;44185;47.844;8.966;2023-06-10T09:40:51;95858.88;;;25.45;49.54
58385;BME280;44185;47.844;8.966;2023-06-10T09:43:16;95853.03;;;25.65;47.91
58385;BME280;44185;47.844;8.966;2023-06-10T09:45:42;95853.34;;;25.16;47.81
58385;BME280;44185;47.844;8.966;2023-06-10T09:48:08;95855.31;;;24.10;50.85
58385;BME280;44185;47.844;8.966;2023-06-10T09:50:34;95847.88;;;24.68;49.76
58385;BME280;44185;47.844;8.966;2023-06-10T09:53:06;95840.91;;;24.72;49.56
58385;BME280;44185;47.844;8.966;2023-06-10T09:55:33;95852.50;;;25.03;49.42
58385;BME280;44185;47.844;8.966;2023-06-10T09:57:58;95847.56;;;25.00;47.21
58385;BME280;44185;47.844;8.966;2023-06-10T10:00:24;95849.91;;;25.08;47.87
58385;BME280;44185;47.844;8.966;2023-06-10T10:02:51;95846.25;;;24.91;47.63
58385;BME280;44185;47.844;8.966;2023-06-10T10:05:20;95847.78;;;24.86;48.71
58385;BME280;44185;47.844;8.966;2023-06-10T10:07:46;95835.97;;;24.57;48.61
58385;BME280;44185;47.844;8.966;2023-06-10T10:10:12;95845.22;;;25.04;50.10
58385;BME280;44185;47.844;8.966;2023-06-10T10:12:39;95845.53;;;24.83;49.69
58385;BME280;44185;47.844;8.966;2023-06-10T10:15:06;95850.50;;;25.35;46.84
58385;BME280;44185;47.844;8.966;2023-06-10T10:17:33;95849.19;;;25.49;47.53
58385;BME280;44185;47.844;8.966;2023-06-10T10:20:04;95846.25;;;24.79;48.05
58385;BME280;44185;47.844;8.966;2023-06-10T10:22:36;95846.91;;;24.74;49.41
58385;BME280;44185;47.844;8.966;2023-06-10T10:25:07;95838.38;;;24.89;48.24
58385;BME280;44185;47.844;8.966;2023-06-10T10:27:36;95843.75;;;24.77;47.99
58385;BME280;44185;47.844;8.966;2023-06-10T10:30:07;95834.69;;;24.59;47.52
58385;BME280;44185;47.844;8.966;2023-06-10T10:32:37;95847.34;;;25.26;46.36
58385;BME280;44185;47.844;8.966;2023-06-10T10:35:08;95837.16;;;25.57;45.50
58385;BME280;44185;47.844;8.966;2023-06-10T10:37:36;95842.00;;;26.08;45.50
58385;BME280;44185;47.844;8.966;2023-06-10T10:40:02;95839.28;;;25.55;46.25
58385;BME280;44185;47.844;8.966;2023-06-10T10:42:29;95840.72;;;25.21;45.33
58385;BME280;44185;47.844;8.966;2023-06-10T10:44:55;95836.97;;;25.23;47.75
58385;BME280;44185;47.844;8.966;2023-06-10T10:47:22;95825.06;;;24.99;48.62
58385;BME280;44185;47.844;8.966;2023-06-10T10:49:49;95833.31;;;25.17;47.18
58385;BME280;44185;47.844;8.966;2023-06-10T10:52:16;95840.25;;;25.37;46.91
58385;BME280;44185;47.844;8.966;2023-06-10T10:54:45;95829.63;;;24.63;47.17
58385;BME280;44185;47.844;8.966;2023-06-10T10:57:12;95829.06;;;24.97;49.65
58385;BME280;44185;47.844;8.966;2023-06-10T10:59:46;95828.78;;;25.59;43.33
58385;BME280;44185;47.844;8.966;2023-06-10T11:02:15;95825.72;;;25.79;44.17
58385;BME280;44185;47.844;8.966;2023-06-10T11:04:45;95824.75;;;25.85;45.74
58385;BME280;44185;47.844;8.966;2023-06-10T11:07:11;95819.16;;;25.51;46.73
58385;BME280;44185;47.844;8.966;2023-06-10T11:09:36;95822.00;;;24.84;47.76
58385;BME280;44185;47.844;8.966;2023-06-10T11:12:05;95818.91;;;25.52;46.17
58385;BME280;44185;47.844;8.966;2023-06-10T11:14:31;95806.94;;;25.90;44.91
58385;BME280;44185;47.844;8.966;2023-06-10T11:16:57;95816.38;;;26.16;45.64
58385;BME280;44185;47.844;8.966;2023-06-10T11:19:32;95822.25;;;25.30;47.33
58385;BME280;44185;47.844;8.966;2023-06-10T11:21:58;95812.22;;;24.83;48.62
58385;BME280;44185;47.844;8.966;2023-06-10T11:24:24;95812.25;;;24.71;48.99
58385;BME280;44185;47.844;8.966;2023-06-10T11:26:49;95811.75;;;24.62;48.23
58385;BME280;44185;47.844;8.966;2023-06-10T11:29:16;95804.25;;;24.76;48.97
58385;BME280;44185;47.844;8.966;2023-06-10T11:31:46;95804.25;;;24.76;47.40
58385;BME280;44185;47.844;8.966;2023-06-10T11:34:21;95810.47;;;25.37;46.72
58385;BME280;44185;47.844;8.966;2023-06-10T11:36:47;95810.75;;;25.76;46.61
58385;BME280;44185;47.844;8.966;2023-06-10T11:39:12;95803.06;;;24.96;42.15
58385;BME280;44185;47.844;8.966;2023-06-10T11:41:39;95813.31;;;25.06;43.74
58385;BME280;44185;47.844;8.966;2023-06-10T11:44:08;95809.06;;;24.86;46.93
58385;BME280;44185;47.844;8.966;2023-06-10T11:46:37;95808.88;;;24.44;46.82
58385;BME280;44185;47.844;8.966;2023-06-10T11:49:04;95810.53;;;24.33;47.28
58385;BME280;44185;47.844;8.966;2023-06-10T11:51:32;95812.47;;;24.26;48.09
58385;BME280;44185;47.844;8.966;2023-06-10T11:53:58;95803.06;;;24.60;47.77
58385;BME280;44185;47.844;8.966;2023-06-10T11:56:25;95805.66;;;24.91;46.64
58385;BME280;44185;47.844;8.966;2023-06-10T11:58:52;95802.34;;;25.00;45.48
58385;BME280;44185;47.844;8.966;2023-06-10T12:01:19;95802.34;;;25.37;45.38
58385;BME280;44185;47.844;8.966;2023-06-10T12:03:46;95801.91;;;25.81;43.89
58385;BME280;44185;47.844;8.966;2023-06-10T12:06:12;95800.13;;;24.85;41.34
58385;BME280;44185;47.844;8.966;2023-06-10T12:08:41;95809.84;;;24.50;42.04
58385;BME280;44185;47.844;8.966;2023-06-10T12:11:09;95802.06;;;24.11;43.66
58385;BME280;44185;47.844;8.966;2023-06-10T12:13:35;95802.59;;;24.20;45.11
58385;BME280;44185;47.844;8.966;2023-06-10T12:16:07;95795.22;;;24.27;42.82
58385;BME280;44185;47.844;8.966;2023-06-10T12:18:33;95786.25;;;24.58;43.32
58385;BME280;44185;47.844;8.966;2023-06-10T12:21:00;95785.91;;;25.02;44.22
58385;BME280;44185;47.844;8.966;2023-06-10T12:23:25;95794.81;;;25.27;44.53
58385;BME280;44185;47.844;8.966;2023-06-10T12:25:51;95795.22;;;25.72;44.03
58385;BME280;44185;47.844;8.966;2023-06-10T12:28:18;95799.19;;;25.04;42.88
58385;BME280;44185;47.844;8.966;2023-06-10T12:30:45;95797.41;;;24.73;43.62
58385;BME280;44185;47.844;8.966;2023-06-10T12:33:16;95792.56;;;24.51;44.15
58385;BME280;44185;47.844;8.966;2023-06-10T12:35:47;95781.66;;;24.70;45.62
58385;BME280;44185;47.844;8.966;2023-06-10T12:38:14;95788.81;;;25.00;45.88
58385;BME280;44185;47.844;8.966;2023-06-10T12:40:40;95781.88;;;25.29;45.10
58385;BME280;44185;47.844;8.966;2023-06-10T12:43:05;95783.97;;;25.39;43.43
58385;BME280;44185;47.844;8.966;2023-06-10T12:45:32;95789.00;;;26.01;43.11
58385;BME280;44185;47.844;8.966;2023-06-10T12:48:05;95787.72;;;25.91;42.48
58385;BME280;44185;47.844;8.966;2023-06-10T12:50:30;95784.25;;;25.79;43.21
58385;BME280;44185;47.844;8.966;2023-06-10T12:52:56;95789.09;;;25.76;42.20
58385;BME280;44185;47.844;8.966;2023-06-10T12:55:25;95772.56;;;25.37;42.82